Time;durP1;ratioP1;P1;durP2;ratioP2;P2;SDS_P1;SDS_P2;PMS_P1;PMS_P2;Temp;Humidity;BMP_temperature;BMP_pressure;BME280_temperature;BME280_humidity;BME280_pressure;Samples;Min_cycle;Max_cycle;Signal;HPM_P1;HPM_P2
2022/03/16 00:01:41;;;;;;;6.33;2.33;;;;;;;1.22;51.30;102005.49;1686697;84;21250;-54
2022/03/16 00:04:07;;;;;;;6.47;1.62;;;;;;;1.22;51.11;102008.09;1686588;84;22224;-54
2022/03/16 00:06:34;;;;;;;4.80;1.70;;;;;;;1.19;51.01;102012.02;1684344;83;21063;-53
2022/03/16 00:09:02;;;;;;;2.85;1.05;;;;;;;1.20;50.84;102010.70;1685330;84;21041;-53
2022/03/16 00:11:29;;;;;;;3.50;1.30;;;;;;;1.19;50.61;102008.12;1670107;84;21109;-53
2022/03/16 00:13:56;;;;;;;5.55;1.67;;;;;;;1.16;50.44;102011.64;1681663;83;21117;-53
2022/03/16 00:16:23;;;;;;;3.95;1.22;;;;;;;1.11;50.38;102014.73;1663288;83;21536;-54
2022/03/16 00:18:50;;;;;;;3.52;1.27;;;;;;;1.14;50.03;102016.41;1670394;85;21032;-53
2022/03/16 00:21:17;;;;;;;3.85;1.50;;;;;;;1.09;49.77;102010.88;1683205;85;21047;-53
2022/03/16 00:23:43;;;;;;;3.00;1.15;;;;;;;1.11;49.57;102005.22;1681435;83;21117;-53
2022/03/16 00:26:10;;;;;;;5.67;1.22;;;;;;;1.10;49.38;102006.53;1680078;85;21117;-53
2022/03/16 00:28:37;;;;;;;3.85;1.40;;;;;;;1.13;49.07;102004.31;1684499;85;21381;-53
2022/03/16 00:31:05;;;;;;;4.28;1.25;;;;;;;1.10;48.83;102005.23;1680360;83;21095;-53
2022/03/16 00:33:32;;;;;;;4.15;1.10;;;;;;;1.12;48.64;102003.47;1663773;85;21068;-53
2022/03/16 00:35:59;;;;;;;3.80;0.90;;;;;;;1.10;48.48;102003.94;1686401;84;21071;-53
2022/03/16 00:38:26;;;;;;;4.30;1.15;;;;;;;1.07;48.16;102009.16;1679477;83;21116;-53
2022/03/16 00:40:53;;;;;;;3.60;1.15;;;;;;;1.03;48.06;102002.33;1676157;85;21004;-54
2022/03/16 00:43:19;;;;;;;3.90;1.07;;;;;;;1.04;48.04;102005.31;1676051;83;21082;-53
2022/03/16 00:45:47;;;;;;;3.12;0.70;;;;;;;1.01;48.03;102007.53;1671280;84;21054;-54
2022/03/16 00:48:14;;;;;;;4.35;1.30;;;;;;;1.02;47.97;102007.92;1680557;83;21779;-54
2022/03/16 00:50:43;;;;;;;4.15;1.00;;;;;;;1.00;47.88;102004.95;1665721;85;22892;-54
2022/03/16 00:53:11;;;;;;;3.47;1.20;;;;;;;1.00;47.96;102003.66;1661972;85;21107;-54
2022/03/16 00:55:37;;;;;;;3.52;1.25;;;;;;;0.99;47.97;102005.38;1675064;83;21089;-54
2022/03/16 00:58:05;;;;;;;3.42;1.20;;;;;;;0.97;47.90;102011.02;1666600;85;21485;-54
2022/03/16 01:00:32;;;;;;;3.37;1.22;;;;;;;0.95;47.96;102011.94;1663796;85;21103;-54
2022/03/16 01:03:00;;;;;;;4.92;1.12;;;;;;;0.92;47.97;102009.81;1678791;83;21149;-53
2022/03/16 01:05:27;;;;;;;3.15;1.00;;;;;;;0.90;48.03;102014.14;1666737;85;21995;-53
2022/03/16 01:07:54;;;;;;;3.85;1.07;;;;;;;0.89;48.15;102009.84;1677453;83;21098;-54
2022/03/16 01:10:23;;;;;;;6.00;1.47;;;;;;;0.87;48.17;102005.10;1684893;84;21025;-54
2022/03/16 01:12:50;;;;;;;3.08;0.93;;;;;;;0.85;48.17;101999.53;1681087;83;21058;-54
2022/03/16 01:15:20;;;;;;;5.08;1.10;;;;;;;0.83;48.16;102004.73;1682627;84;21162;-54
2022/03/16 01:17:46;;;;;;;3.83;1.17;;;;;;;0.83;48.10;101996.12;1677497;83;21079;-54
2022/03/16 01:20:13;;;;;;;3.83;0.90;;;;;;;0.82;48.12;101994.39;1684510;84;20986;-53
2022/03/16 01:22:40;;;;;;;2.70;0.82;;;;;;;0.81;48.01;101999.14;1672545;84;21106;-54
2022/03/16 01:25:07;;;;;;;3.12;0.90;;;;;;;0.81;48.06;101996.55;1677196;83;21572;-54
2022/03/16 01:27:34;;;;;;;3.75;1.02;;;;;;;0.77;48.11;101991.85;1668885;85;21259;-54
2022/03/16 01:30:01;;;;;;;3.30;1.00;;;;;;;0.78;48.11;101996.63;1665321;83;21051;-54
2022/03/16 01:32:28;;;;;;;4.53;1.00;;;;;;;0.76;48.15;101993.17;1678957;83;21059;-53
2022/03/16 01:34:55;;;;;;;4.33;1.35;;;;;;;0.74;48.20;102001.84;1690822;84;20989;-54
2022/03/16 01:37:22;;;;;;;2.90;0.82;;;;;;;0.74;48.18;101999.25;1685670;84;21590;-53
2022/03/16 01:39:49;;;;;;;7.50;1.47;;;;;;;0.74;48.17;101993.22;1685125;84;21122;-54
2022/03/16 01:42:15;;;;;;;3.60;1.20;;;;;;;0.69;48.23;101991.97;1679343;83;21102;-53
2022/03/16 01:44:49;;;;;;;4.22;0.93;;;;;;;0.67;48.17;101987.26;1679614;83;21400;-54
2022/03/16 01:47:19;;;;;;;4.30;1.35;;;;;;;0.62;48.12;101986.88;1678566;84;21531;-53
2022/03/16 01:49:47;;;;;;;3.50;1.05;;;;;;;0.60;48.09;101988.19;1685432;83;21024;-54
2022/03/16 01:52:19;;;;;;;2.95;0.95;;;;;;;0.55;48.06;101992.58;1685718;84;21152;-55
2022/03/16 01:54:46;;;;;;;2.45;0.70;;;;;;;0.53;48.00;101993.88;1679786;84;20989;-55
2022/03/16 01:57:13;;;;;;;3.47;0.85;;;;;;;0.51;48.03;102000.83;1683392;83;21536;-55
2022/03/16 01:59:40;;;;;;;6.35;1.40;;;;;;;0.51;47.98;102003.41;1689772;83;21077;-54
2022/03/16 02:02:07;;;;;;;3.33;1.02;;;;;;;0.49;48.17;102001.29;1684740;83;21588;-54
2022/03/16 02:04:34;;;;;;;3.85;1.10;;;;;;;0.50;48.26;102000.39;1685832;84;21169;-54
2022/03/16 02:07:02;;;;;;;2.55;0.90;;;;;;;0.52;48.20;102005.14;1685185;83;21044;-55
2022/03/16 02:09:30;;;;;;;3.47;1.02;;;;;;;0.50;48.15;102002.14;1686853;83;21536;-55
2022/03/16 02:11:56;;;;;;;3.45;0.93;;;;;;;0.47;48.19;102008.23;1690079;84;21040;-55
2022/03/16 02:14:25;;;;;;;3.47;1.10;;;;;;;0.45;48.18;102002.19;1685792;84;21025;-54
2022/03/16 02:16:51;;;;;;;6.12;1.25;;;;;;;0.45;48.22;102009.95;1677980;84;21184;-55
2022/03/16 02:19:18;;;;;;;5.65;1.30;;;;;;;0.42;48.30;102012.61;1686539;83;21074;-55
2022/03/16 02:21:46;;;;;;;5.25;1.82;;;;;;;0.43;48.40;102004.39;1681028;83;21062;-54
2022/03/16 02:24:14;;;;;;;4.08;1.20;;;;;;;0.38;48.45;102005.73;1682595;84;21087;-55
2022/03/16 02:26:40;;;;;;;2.95;0.93;;;;;;;0.38;48.54;102004.44;1679908;83;21110;-54
2022/03/16 02:29:07;;;;;;;4.58;1.30;;;;;;;0.36;48.66;102003.60;1687496;83;22091;-55
2022/03/16 02:31:34;;;;;;;4.53;1.22;;;;;;;0.33;48.72;102001.05;1682892;83;21040;-54
2022/03/16 02:34:03;;;;;;;5.92;1.30;;;;;;;0.32;48.81;102000.20;1677784;83;21070;-53
2022/03/16 02:36:30;;;;;;;4.42;1.02;;;;;;;0.33;48.88;102001.05;1685742;84;21058;-53
2022/03/16 02:38:57;;;;;;;4.22;1.00;;;;;;;0.33;48.94;102003.63;1684201;84;21152;-53
2022/03/16 02:41:23;;;;;;;5.70;1.57;;;;;;;0.30;48.94;102001.95;1686467;83;21730;-53
2022/03/16 02:43:50;;;;;;;4.28;1.20;;;;;;;0.28;49.02;102011.89;1685419;83;21044;-53
2022/03/16 02:46:17;;;;;;;4.53;1.65;;;;;;;0.22;49.17;102006.77;1687950;84;21110;-55
2022/03/16 02:48:44;;;;;;;4.47;1.15;;;;;;;0.18;49.36;102011.12;1684558;84;20989;-53
2022/03/16 02:51:11;;;;;;;4.87;1.20;;;;;;;0.16;49.46;102011.14;1686834;84;21594;-53
2022/03/16 02:53:39;;;;;;;3.62;1.30;;;;;;;0.16;49.46;102009.00;1680169;84;21349;-53
2022/03/16 02:56:05;;;;;;;3.22;1.07;;;;;;;0.11;49.48;102014.22;1685389;84;21036;-52
2022/03/16 02:58:32;;;;;;;4.85;1.67;;;;;;;0.12;49.53;102010.77;1685002;84;21102;-53
2022/03/16 03:00:59;;;;;;;4.10;1.15;;;;;;;0.10;49.56;102011.64;1686590;83;21134;-54
2022/03/16 03:03:27;;;;;;;3.85;1.22;;;;;;;0.12;49.63;102011.21;1676343;83;21846;-55
2022/03/16 03:05:54;;;;;;;4.12;1.20;;;;;;;0.13;49.62;102007.73;1687604;84;21162;-53
2022/03/16 03:08:21;;;;;;;3.77;1.40;;;;;;;0.09;49.56;102001.73;1685901;83;21588;-53
2022/03/16 03:10:49;;;;;;;3.52;0.98;;;;;;;0.09;49.64;102004.77;1685039;84;21066;-54
2022/03/16 03:13:16;;;;;;;4.58;1.20;;;;;;;0.05;49.84;102005.24;1676574;85;21009;-54
2022/03/16 03:15:44;;;;;;;4.60;1.15;;;;;;;0.06;49.90;102003.05;1681575;85;21037;-54
2022/03/16 03:18:11;;;;;;;4.42;1.20;;;;;;;0.04;49.93;102009.14;1672893;85;21172;-54
2022/03/16 03:20:38;;;;;;;3.60;0.95;;;;;;;0.04;50.05;102007.39;1674980;85;21079;-54
2022/03/16 03:23:06;;;;;;;4.95;1.55;;;;;;;0.05;50.23;102005.24;1670898;85;21139;-54
2022/03/16 03:25:33;;;;;;;4.53;1.35;;;;;;;0.05;50.30;102009.13;1675174;84;21071;-53
2022/03/16 03:28:00;;;;;;;4.58;1.50;;;;;;;0.02;50.38;102013.45;1677776;83;21134;-54
2022/03/16 03:30:27;;;;;;;5.25;1.35;;;;;;;-0.02;50.56;102013.50;1675277;83;21927;-53
2022/03/16 03:32:54;;;;;;;4.15;1.35;;;;;;;-0.04;50.63;102010.05;1672402;83;21033;-54
2022/03/16 03:35:20;;;;;;;4.00;1.30;;;;;;;-0.07;50.70;102010.52;1679501;85;21095;-53
2022/03/16 03:37:48;;;;;;;3.95;1.10;;;;;;;-0.06;50.75;102016.13;1676697;85;21567;-54
2022/03/16 03:40:15;;;;;;;4.67;1.17;;;;;;;-0.09;50.89;102018.73;1673999;85;21075;-53
2022/03/16 03:42:42;;;;;;;4.72;1.25;;;;;;;-0.11;51.06;102017.90;1675497;83;21172;-54
2022/03/16 03:45:09;;;;;;;3.92;1.40;;;;;;;-0.11;51.23;102022.63;1678371;85;21517;-54
2022/03/16 03:47:36;;;;;;;4.20;1.30;;;;;;;-0.10;51.23;102025.66;1680702;85;21057;-54
2022/03/16 03:50:04;;;;;;;4.15;1.40;;;;;;;-0.09;51.25;102026.50;1664037;84;21055;-54
2022/03/16 03:52:32;;;;;;;2.70;0.93;;;;;;;-0.11;51.37;102021.78;1665337;85;21682;-54
2022/03/16 03:54:58;;;;;;;3.62;1.12;;;;;;;-0.11;51.39;102026.96;1664390;83;21242;-53
2022/03/16 03:57:25;;;;;;;4.08;1.32;;;;;;;-0.14;51.62;102033.45;1677119;85;21452;-54
2022/03/16 03:59:51;;;;;;;5.12;1.45;;;;;;;-0.16;51.76;102032.61;1663351;83;21059;-53
2022/03/16 04:02:18;;;;;;;3.55;1.32;;;;;;;-0.18;51.83;102022.27;1662841;84;21567;-54
2022/03/16 04:04:45;;;;;;;4.70;1.57;;;;;;;-0.17;51.96;102029.59;1676600;84;21089;-54
2022/03/16 04:07:11;;;;;;;4.05;1.30;;;;;;;-0.19;52.17;102030.45;1680035;85;21112;-54
2022/03/16 04:09:38;;;;;;;3.87;1.40;;;;;;;-0.21;52.15;102027.02;1674785;84;21076;-54
2022/03/16 04:12:07;;;;;;;3.15;0.88;;;;;;;-0.23;52.15;102030.06;1673824;85;21024;-54
2022/03/16 04:14:34;;;;;;;2.85;0.85;;;;;;;-0.25;52.25;102029.23;1666601;83;21170;-54
2022/03/16 04:17:01;;;;;;;4.30;0.98;;;;;;;-0.26;52.29;102022.33;1673109;85;21640;-53
2022/03/16 04:19:28;;;;;;;4.10;1.25;;;;;;;-0.25;52.31;102031.81;1670469;83;21257;-54
2022/03/16 04:21:55;;;;;;;4.75;1.40;;;;;;;-0.28;52.35;102036.16;1678833;83;21047;-54
2022/03/16 04:24:21;;;;;;;4.78;1.55;;;;;;;-0.33;52.47;102033.61;1677004;85;21064;-54
2022/03/16 04:26:48;;;;;;;4.62;1.32;;;;;;;-0.37;52.73;102028.02;1680364;84;21063;-53
2022/03/16 04:29:15;;;;;;;5.10;1.27;;;;;;;-0.36;52.72;102028.90;1668157;83;21713;-54
2022/03/16 04:31:42;;;;;;;3.85;1.47;;;;;;;-0.35;52.82;102034.06;1680259;85;21086;-53
2022/03/16 04:34:09;;;;;;;3.92;1.55;;;;;;;-0.34;52.73;102029.30;1665463;83;21126;-54
2022/03/16 04:36:37;;;;;;;2.85;1.15;;;;;;;-0.35;52.86;102033.19;1656175;83;21134;-54
2022/03/16 04:39:04;;;;;;;4.17;1.45;;;;;;;-0.38;53.02;102034.08;1661856;83;21492;-54
2022/03/16 04:41:31;;;;;;;3.80;1.37;;;;;;;-0.36;53.00;102030.19;1665192;85;21056;-54
2022/03/16 04:43:58;;;;;;;4.05;1.67;;;;;;;-0.38;53.11;102027.62;1676484;83;21171;-55
2022/03/16 04:46:26;;;;;;;4.00;1.37;;;;;;;-0.39;53.16;102034.94;1673510;85;21086;-54
2022/03/16 04:48:53;;;;;;;3.62;1.22;;;;;;;-0.41;53.18;102040.13;1683252;83;21039;-54
2022/03/16 04:51:20;;;;;;;6.20;1.87;;;;;;;-0.45;53.31;102034.56;1656101;85;21576;-54
2022/03/16 04:53:46;;;;;;;5.15;1.42;;;;;;;-0.46;53.45;102039.75;1672594;85;21071;-54
2022/03/16 04:56:14;;;;;;;3.95;1.40;;;;;;;-0.47;53.59;102040.60;1671207;85;21159;-54
2022/03/16 04:58:40;;;;;;;7.00;1.75;;;;;;;-0.48;53.71;102043.63;1675435;85;21090;-53
2022/03/16 05:01:07;;;;;;;6.22;1.95;;;;;;;-0.47;53.78;102034.14;1676861;83;21020;-54
2022/03/16 05:03:34;;;;;;;4.53;1.50;;;;;;;-0.44;53.81;102040.59;1675229;83;21115;-54
2022/03/16 05:06:01;;;;;;;3.87;1.42;;;;;;;-0.41;53.79;102040.56;1678670;85;21059;-54
2022/03/16 05:08:27;;;;;;;4.62;1.65;;;;;;;-0.40;53.89;102046.17;1672136;83;21158;-54
2022/03/16 05:10:55;;;;;;;4.05;1.32;;;;;;;-0.40;54.08;102050.05;1678910;85;21040;-54
2022/03/16 05:13:22;;;;;;;3.75;1.27;;;;;;;-0.39;54.05;102043.99;1678027;84;21529;-54
2022/03/16 05:15:49;;;;;;;7.37;1.15;;;;;;;-0.37;54.08;102046.13;1670448;84;21075;-54
2022/03/16 05:18:17;;;;;;;5.15;1.62;;;;;;;-0.35;54.13;102059.93;1677373;83;21058;-54
2022/03/16 05:20:43;;;;;;;3.95;1.32;;;;;;;-0.30;54.12;102063.34;1682974;84;21173;-54
2022/03/16 05:23:10;;;;;;;4.17;1.35;;;;;;;-0.29;54.19;102059.01;1682988;84;21733;-54
2022/03/16 05:25:38;;;;;;;6.97;1.75;;;;;;;-0.26;54.18;102055.11;1680919;84;22284;-54
2022/03/16 05:28:05;;;;;;;3.62;1.45;;;;;;;-0.25;54.18;102060.27;1682815;84;21108;-54
2022/03/16 05:30:33;;;;;;;4.03;1.50;;;;;;;-0.25;54.21;102060.27;1688785;84;21052;-54
2022/03/16 05:33:01;;;;;;;5.50;1.72;;;;;;;-0.22;54.23;102061.96;1686950;84;21264;-54
2022/03/16 05:35:28;;;;;;;4.40;1.30;;;;;;;-0.21;54.26;102063.25;1687053;83;21039;-54
2022/03/16 05:37:56;;;;;;;3.20;1.27;;;;;;;-0.16;54.27;102061.92;1679860;83;21537;-53
2022/03/16 05:40:22;;;;;;;4.42;1.60;;;;;;;-0.12;54.26;102061.01;1682759;84;21063;-54
2022/03/16 05:45:36;;;;;;;7.72;1.95;;;;;;;-0.04;54.43;102069.56;1787257;79;22620;-55
2022/03/16 05:48:04;;;;;;;5.22;1.82;;;;;;;-0.07;54.40;102071.33;1752872;80;21063;-54
2022/03/16 05:50:31;;;;;;;5.30;1.82;;;;;;;-0.02;54.29;102069.14;1748967;80;21824;-54
2022/03/16 05:52:58;;;;;;;5.78;1.82;;;;;;;0.03;54.29;102072.96;1750036;81;21075;-54
2022/03/16 05:55:26;;;;;;;4.40;1.40;;;;;;;0.08;54.26;102062.12;1735246;80;21149;-54
2022/03/16 05:57:53;;;;;;;5.05;1.62;;;;;;;0.12;54.37;102069.01;1747065;80;21078;-54
2022/03/16 06:00:21;;;;;;;4.78;1.80;;;;;;;0.18;54.35;102075.44;1755821;80;21105;-54
2022/03/16 06:02:49;;;;;;;3.47;1.55;;;;;;;0.21;54.23;102069.80;1754040;81;21086;-54
2022/03/16 06:05:16;;;;;;;5.15;1.77;;;;;;;0.21;54.21;102073.23;1749038;80;21934;-55
2022/03/16 06:07:43;;;;;;;3.98;1.50;;;;;;;0.25;54.18;102068.88;1746750;81;20952;-54
2022/03/16 06:10:12;;;;;;;4.28;1.40;;;;;;;0.26;54.16;102080.52;1754987;81;21539;-54
2022/03/16 06:12:58;;;;;;;3.90;1.20;;;;;;;0.29;54.06;102078.34;1745595;80;21110;-54
2022/03/16 06:15:27;;;;;;;4.03;1.55;;;;;;;0.33;54.05;102080.02;1746645;80;21327;-53
2022/03/16 06:17:58;;;;;;;4.17;1.47;;;;;;;0.38;54.13;102082.57;1732204;80;21093;-53
2022/03/16 06:20:26;;;;;;;5.03;1.67;;;;;;;0.41;54.02;102087.73;1752883;80;21003;-54
2022/03/16 06:22:52;;;;;;;4.30;1.57;;;;;;;0.44;53.85;102086.38;1734264;81;21858;-53
2022/03/16 06:25:19;;;;;;;4.80;1.80;;;;;;;0.46;53.73;102084.20;1747943;80;21070;-54
2022/03/16 06:27:45;;;;;;;5.78;1.82;;;;;;;0.52;53.48;102082.84;1752247;80;22105;-53
2022/03/16 06:30:13;;;;;;;4.60;1.25;;;;;;;0.59;53.50;102078.46;1747269;80;21017;-53
2022/03/16 06:32:46;;;;;;;5.25;1.57;;;;;;;0.69;53.41;102083.08;1741379;81;21098;-54
2022/03/16 06:35:12;;;;;;;5.30;1.90;;;;;;;0.75;53.16;102092.08;1744159;80;21000;-53
2022/03/16 06:37:39;;;;;;;4.67;1.55;;;;;;;0.80;52.91;102090.73;1749618;81;21098;-54
2022/03/16 06:40:09;;;;;;;4.70;1.62;;;;;;;0.84;52.70;102091.11;1755684;81;21788;-53
2022/03/16 06:42:56;;;;;;;4.60;1.62;;;;;;;0.87;52.40;102091.92;1735101;81;21043;-53
2022/03/16 06:45:25;;;;;;;5.08;1.95;;;;;;;0.86;52.25;102092.82;1693174;81;21822;-54
2022/03/16 06:47:55;;;;;;;4.30;1.20;;;;;;;0.86;52.31;102095.41;1737839;80;21906;-53
2022/03/16 06:50:22;;;;;;;4.12;1.55;;;;;;;0.91;52.30;102096.21;1738790;81;21051;-54
2022/03/16 06:52:49;;;;;;;4.00;1.60;;;;;;;0.93;52.17;102093.16;1698773;83;21105;-54
2022/03/16 06:55:16;;;;;;;4.70;1.45;;;;;;;1.02;51.90;102092.17;1701859;82;21051;-55
2022/03/16 06:57:43;;;;;;;5.80;2.10;;;;;;;1.02;51.79;102096.06;1701168;82;21070;-54
2022/03/16 07:00:13;;;;;;;4.08;1.67;;;;;;;1.08;51.71;102099.03;1700099;82;21497;-54
2022/03/16 07:02:55;;;;;;;4.10;1.40;;;;;;;1.16;51.46;102097.62;1733317;80;21826;-54
2022/03/16 07:05:29;;;;;;;5.80;1.82;;;;;;;1.26;51.17;102092.31;1736542;80;21320;-54
2022/03/16 07:07:57;;;;;;;4.20;1.67;;;;;;;1.33;51.02;102092.20;1734944;81;21546;-53
2022/03/16 07:10:25;;;;;;;3.95;1.20;;;;;;;1.38;50.75;102094.29;1737612;81;21057;-54
2022/03/16 07:12:52;;;;;;;4.95;1.40;;;;;;;1.43;50.33;102091.19;1697454;82;21110;-53
2022/03/16 07:15:19;;;;;;;4.03;1.52;;;;;;;1.47;50.08;102099.36;1700884;82;21082;-54
2022/03/16 07:17:46;;;;;;;3.45;1.27;;;;;;;1.52;50.03;102100.59;1737562;82;21139;-54
2022/03/16 07:20:13;;;;;;;4.70;1.57;;;;;;;1.58;50.02;102109.15;1738012;80;21080;-54
2022/03/16 07:22:41;;;;;;;3.85;1.57;;;;;;;1.67;49.99;102110.74;1738538;81;21361;-54
2022/03/16 07:25:09;;;;;;;3.85;1.22;;;;;;;1.75;49.89;102109.30;1737079;80;21133;-54
2022/03/16 07:27:38;;;;;;;4.08;1.80;;;;;;;1.84;49.43;102110.48;1732179;81;21017;-54
2022/03/16 07:30:09;;;;;;;6.00;1.50;;;;;;;1.88;48.88;102110.83;1738906;81;21152;-53
2022/03/16 07:32:42;;;;;;;3.42;1.27;;;;;;;1.88;48.57;102104.34;1740103;80;21524;-53
2022/03/16 07:35:09;;;;;;;5.08;1.85;;;;;;;1.90;48.76;102104.32;1738504;80;21082;-53
2022/03/16 07:37:37;;;;;;;5.17;1.62;;;;;;;1.97;48.78;102104.20;1738122;81;21063;-53
2022/03/16 07:40:06;;;;;;;3.52;0.98;;;;;;;2.03;48.77;102109.31;1740462;82;21068;-53
2022/03/16 07:42:33;;;;;;;5.90;1.62;;;;;;;2.12;48.38;102108.29;1740479;80;21622;-56
2022/03/16 07:44:59;;;;;;;5.12;1.57;;;;;;;2.17;48.04;102109.06;1739965;81;21042;-53
2022/03/16 07:47:26;;;;;;;5.65;1.87;;;;;;;2.24;47.69;102108.52;1751589;80;21074;-53
2022/03/16 07:49:53;;;;;;;4.92;1.85;;;;;;;2.28;47.67;102107.56;1751394;81;21603;-53
2022/03/16 07:52:21;;;;;;;5.72;1.87;;;;;;;2.33;47.06;102103.14;1747714;80;21124;-53
2022/03/16 07:54:47;;;;;;;4.25;1.60;;;;;;;2.38;46.31;102106.52;1750231;80;21194;-54
2022/03/16 07:57:16;;;;;;;5.47;1.52;;;;;;;2.44;46.62;102110.77;1751692;80;21126;-54
2022/03/16 07:59:44;;;;;;;3.98;1.40;;;;;;;2.51;46.71;102108.45;1753325;80;21009;-54
2022/03/16 08:02:16;;;;;;;5.42;1.50;;;;;;;2.56;46.10;102101.42;1755181;81;21028;-54
2022/03/16 08:04:43;;;;;;;3.30;1.30;;;;;;;2.62;45.61;102101.73;1691850;83;21096;-53
2022/03/16 08:07:10;;;;;;;4.25;1.50;;;;;;;2.67;45.46;102102.50;1711419;82;21155;-54
2022/03/16 08:09:37;;;;;;;4.42;1.32;;;;;;;2.71;45.25;102100.73;1709840;82;21428;-54
2022/03/16 08:12:05;;;;;;;4.33;1.75;;;;;;;2.75;45.15;102098.47;1706444;82;21070;-54
2022/03/16 08:14:32;;;;;;;4.03;1.12;;;;;;;2.75;44.93;102101.91;1715347;82;21015;-54
2022/03/16 08:17:00;;;;;;;4.72;1.77;;;;;;;2.79;45.02;102098.80;1718030;82;21042;-54
2022/03/16 08:19:27;;;;;;;3.65;1.52;;;;;;;2.84;44.75;102098.72;1712109;82;21297;-55
2022/03/16 08:21:53;;;;;;;5.00;1.35;;;;;;;2.89;44.59;102094.28;1694293;82;21051;-54
2022/03/16 08:24:20;;;;;;;4.65;1.57;;;;;;;2.93;44.39;102097.25;1689056;84;21107;-54
2022/03/16 08:26:46;;;;;;;3.98;1.52;;;;;;;3.01;44.63;102099.67;1697700;84;21103;-54
2022/03/16 08:29:15;;;;;;;3.87;1.32;;;;;;;3.07;44.54;102100.86;1692174;82;21118;-54
2022/03/16 08:31:43;;;;;;;7.20;2.08;;;;;;;3.15;44.28;102101.09;1693598;84;21279;-54
2022/03/16 08:34:10;;;;;;;4.67;1.47;;;;;;;3.22;44.05;102097.92;1695018;82;21011;-54
2022/03/16 08:36:39;;;;;;;4.78;1.75;;;;;;;3.26;44.09;102093.08;1696525;84;21051;-54
2022/03/16 08:39:06;;;;;;;3.17;1.40;;;;;;;3.35;43.97;102094.61;1692847;84;21059;-54
2022/03/16 08:41:33;;;;;;;5.03;1.50;;;;;;;3.40;43.83;102094.52;1690099;82;22077;-54
2022/03/16 08:44:01;;;;;;;4.83;1.57;;;;;;;3.44;43.92;102094.39;1696438;82;21165;-54
2022/03/16 08:46:30;;;;;;;4.35;1.60;;;;;;;3.54;43.73;102100.24;1693955;84;21044;-55
2022/03/16 08:48:57;;;;;;;5.05;1.32;;;;;;;3.62;43.28;102097.48;1706632;82;21055;-54
2022/03/16 08:51:25;;;;;;;4.50;1.35;;;;;;;3.69;42.90;102099.88;1699787;83;21140;-53
2022/03/16 08:53:52;;;;;;;4.60;1.45;;;;;;;3.74;42.74;102103.69;1704828;83;20987;-53
2022/03/16 08:56:19;;;;;;;5.35;1.80;;;;;;;3.78;42.60;102095.34;1701545;82;21159;-54
2022/03/16 08:58:46;;;;;;;3.60;1.20;;;;;;;3.82;42.64;102095.70;1699510;82;21641;-54
2022/03/16 09:01:14;;;;;;;3.95;1.32;;;;;;;3.87;42.68;102086.03;1683221;84;21051;-54
2022/03/16 09:03:41;;;;;;;4.47;1.35;;;;;;;3.95;42.48;102093.20;1739183;80;21096;-54
2022/03/16 09:06:08;;;;;;;5.15;1.72;;;;;;;4.02;42.04;102095.21;1736506;82;21107;-54
2022/03/16 09:08:36;;;;;;;4.87;1.65;;;;;;;4.11;42.16;102094.96;1741621;81;22165;-53
2022/03/16 09:11:03;;;;;;;4.70;1.40;;;;;;;4.15;41.84;102093.12;1738696;82;21069;-54
2022/03/16 09:13:30;;;;;;;6.50;1.95;;;;;;;4.16;41.02;102100.91;1733782;81;21051;-54
2022/03/16 09:16:01;;;;;;;3.55;1.07;;;;;;;4.18;40.74;102097.81;1742124;80;21039;-55
2022/03/16 09:18:26;;;;;;;4.40;1.67;;;;;;;4.19;40.99;102099.53;1735467;81;21060;-55
2022/03/16 09:20:53;;;;;;;4.03;1.47;;;;;;;4.22;40.55;102098.58;1740994;80;21833;-55
2022/03/16 09:23:20;;;;;;;3.87;1.45;;;;;;;4.26;40.05;102093.72;1741389;81;21074;-54
2022/03/16 09:25:46;;;;;;;4.58;1.25;;;;;;;4.27;39.53;102091.07;1722837;82;21767;-55
2022/03/16 09:28:13;;;;;;;5.47;1.40;;;;;;;4.27;39.36;102093.67;1719699;81;21441;-54
2022/03/16 09:30:41;;;;;;;4.00;1.07;;;;;;;4.31;38.88;102097.52;1718535;80;21090;-54
2022/03/16 09:33:09;;;;;;;3.98;1.27;;;;;;;4.33;38.60;102100.47;1723732;80;21889;-54
2022/03/16 09:35:36;;;;;;;3.22;1.00;;;;;;;4.35;38.72;102099.13;1735280;82;21067;-54
2022/03/16 09:38:03;;;;;;;3.92;1.30;;;;;;;4.39;38.50;102104.23;1741930;81;20977;-54
2022/03/16 09:40:30;;;;;;;3.90;1.32;;;;;;;4.40;38.62;102091.58;1732707;80;21043;-54
2022/03/16 09:42:59;;;;;;;4.03;1.32;;;;;;;4.44;38.19;102105.41;1733870;80;21017;-54
2022/03/16 09:45:29;;;;;;;3.77;1.35;;;;;;;4.47;38.53;102109.22;1740275;81;21090;-54
2022/03/16 09:47:56;;;;;;;9.50;1.50;;;;;;;4.52;38.16;102107.80;1739195;81;21647;-54
2022/03/16 09:50:25;;;;;;;3.00;1.32;;;;;;;4.58;37.67;102104.58;1722684;82;21020;-54
2022/03/16 09:52:53;;;;;;;3.22;1.12;;;;;;;4.58;37.27;102107.18;1692393;82;21540;-54
2022/03/16 09:55:21;;;;;;;5.10;1.90;;;;;;;4.58;37.45;102113.70;1685840;82;21484;-53
2022/03/16 09:57:49;;;;;;;4.08;1.30;;;;;;;4.59;37.31;102107.60;1734021;82;21182;-54
2022/03/16 10:00:18;;;;;;;3.08;1.27;;;;;;;4.62;37.00;102108.83;1727793;80;21129;-54
2022/03/16 10:02:46;;;;;;;3.75;1.32;;;;;;;4.65;36.93;102113.08;1734719;82;21053;-54
2022/03/16 10:05:15;;;;;;;3.17;1.35;;;;;;;4.65;36.53;102115.23;1733624;80;21587;-54
2022/03/16 10:07:48;;;;;;;3.70;1.30;;;;;;;4.63;36.57;102118.34;1738367;82;21029;-53
2022/03/16 10:13:13;;;;;;;4.22;1.50;;;;;;;4.70;36.57;102120.33;1669533;82;21094;-54
2022/03/16 10:15:42;;;;;;;3.30;1.10;;;;;;;4.74;36.33;102117.19;1739498;80;21094;-54
2022/03/16 10:18:09;;;;;;;7.28;1.27;;;;;;;4.78;35.87;102121.44;1738240;81;21063;-54
2022/03/16 10:20:39;;;;;;;3.40;1.02;;;;;;;4.79;35.85;102123.12;1738774;80;21054;-54
2022/03/16 10:23:14;;;;;;;3.67;1.10;;;;;;;4.84;36.00;102120.81;1739713;80;21241;-54
2022/03/16 10:25:47;;;;;;;3.73;1.33;;;;;;;4.91;36.29;102124.11;1731189;82;21098;-54
2022/03/16 10:28:24;;;;;;;7.00;1.50;;;;;;;4.95;36.07;102116.58;1734253;81;21508;-53
2022/03/16 10:31:05;;;;;;;2.72;0.80;;;;;;;5.02;35.98;102122.02;1735969;81;21008;-54
2022/03/16 10:33:47;;;;;;;4.45;1.22;;;;;;;5.06;35.56;102118.91;1734844;81;21539;-54
2022/03/16 10:36:16;;;;;;;3.00;1.27;;;;;;;5.05;35.95;102122.39;1730840;82;22282;-54
2022/03/16 10:38:45;;;;;;;5.55;1.40;;;;;;;5.08;36.06;102127.53;1736812;80;21070;-55
2022/03/16 10:47:19;;;;;;;4.08;1.30;;;;;;;5.13;35.07;102117.81;1744459;81;21106;-53
2022/03/16 10:49:48;;;;;;;4.30;1.20;;;;;;;5.12;35.19;102127.83;1747451;81;21996;-53
2022/03/16 10:52:21;;;;;;;4.22;1.12;;;;;;;5.18;34.99;102125.52;1754031;80;21065;-53
2022/03/16 10:54:51;;;;;;;3.58;1.20;;;;;;;5.24;34.58;102125.31;1749018;80;21084;-53
2022/03/16 10:57:15;;;;;;;3.85;1.30;;;;;;;5.30;34.32;102127.75;1746399;81;21053;-54
2022/03/16 10:59:48;;;;;;;3.33;1.17;;;;;;;5.36;34.09;102121.47;1745531;81;21717;-54
2022/03/16 11:02:14;;;;;;;4.35;1.00;;;;;;;5.44;34.56;102118.64;1750247;80;21879;-54
2022/03/16 11:04:43;;;;;;;4.37;1.12;;;;;;;5.54;34.63;102120.06;1751877;80;21112;-54
2022/03/16 11:07:10;;;;;;;4.12;1.22;;;;;;;5.60;34.70;102123.80;1755712;81;21087;-54
2022/03/16 11:09:38;;;;;;;3.50;1.22;;;;;;;5.68;34.33;102123.11;1750238;80;21088;-54
2022/03/16 11:14:55;;;;;;;4.83;1.72;;;;;;;5.81;35.45;102117.48;1753317;81;22568;-54
2022/03/16 11:17:22;;;;;;;5.53;2.08;;;;;;;5.88;35.33;102116.38;1713207;83;21066;-54
2022/03/16 11:19:51;;;;;;;3.20;1.17;;;;;;;5.94;35.62;102118.34;1715284;82;21047;-54
2022/03/16 11:22:25;;;;;;;5.37;1.82;;;;;;;6.04;36.11;102111.55;1715498;82;21069;-53
2022/03/16 11:25:00;;;;;;;4.10;1.42;;;;;;;6.11;35.49;102109.97;1708353;82;21097;-54
2022/03/16 11:27:52;;;;;;;3.85;1.30;;;;;;;6.18;35.01;102118.92;1715135;83;21753;-54
2022/03/16 11:30:36;;;;;;;3.90;1.37;;;;;;;6.20;34.14;102115.33;1710136;82;20991;-54
2022/03/16 11:33:10;;;;;;;4.50;1.35;;;;;;;6.26;34.35;102114.28;1693598;84;21132;-53
2022/03/16 11:35:45;;;;;;;4.20;1.40;;;;;;;6.29;34.57;102107.19;1705242;82;21078;-54
2022/03/16 11:38:13;;;;;;;3.87;1.00;;;;;;;6.37;34.51;102110.86;1716271;83;21495;-54
2022/03/16 11:40:47;;;;;;;2.95;1.20;;;;;;;6.40;34.61;102107.27;1698452;82;21117;-54
2022/03/16 11:43:25;;;;;;;4.35;1.72;;;;;;;6.43;35.02;102110.63;1683130;83;21584;-54
2022/03/16 11:45:54;;;;;;;4.00;1.47;;;;;;;6.55;34.77;102101.95;1696731;83;21106;-54
2022/03/16 11:48:34;;;;;;;4.97;1.95;;;;;;;6.60;34.14;102100.87;1698830;83;21334;-56
2022/03/16 11:51:14;;;;;;;4.37;1.52;;;;;;;6.66;34.21;102097.20;1701479;83;21780;-55